createdAt,value
2023-01-03T00:00:31.869Z,6.73
2023-01-03T00:05:57.397Z,9.57
2023-01-03T00:11:23.698Z,12.98
2023-01-03T00:16:46.116Z,12.63
2023-01-03T00:22:08.818Z,13.20
2023-01-03T00:27:32.764Z,15.68
2023-01-03T00:32:55.069Z,13.73
2023-01-03T00:38:17.291Z,11.65
2023-01-03T00:43:39.853Z,14.97
2023-01-03T00:49:02.301Z,13.47
2023-01-03T00:54:26.613Z,14.03
2023-01-03T00:59:49.019Z,11.80
2023-01-03T01:05:12.744Z,10.43
2023-01-03T01:10:36.254Z,9.80
2023-01-03T01:15:58.485Z,9.07
2023-01-03T01:21:27.947Z,6.50
2023-01-03T01:26:50.786Z,6.80
2023-01-03T01:32:13.537Z,6.47
2023-01-03T01:37:35.783Z,5.73
2023-01-03T01:43:16.527Z,5.33
2023-01-03T01:48:38.695Z,6.20
2023-01-03T01:54:02.604Z,6.83
2023-01-03T01:59:28.988Z,6.23
2023-01-03T02:04:55.286Z,7.23
2023-01-03T02:10:18.552Z,7.77
2023-01-03T02:16:07.816Z,9.17
2023-01-03T02:21:46.535Z,9.85
2023-01-03T02:27:16.511Z,8.17
2023-01-03T02:38:05.784Z,6.43
2023-01-03T02:49:06.300Z,4.47
2023-01-03T02:54:33.159Z,4.07
2023-01-03T03:00:10.175Z,5.30
2023-01-03T03:05:52.378Z,5.27
2023-01-03T03:11:32.608Z,5.92
2023-01-03T03:16:59.889Z,3.47
2023-01-03T03:23:18.364Z,4.30
2023-01-03T03:28:44.684Z,2.13
2023-01-03T03:34:14.467Z,4.67
2023-01-03T03:39:56.495Z,3.43
2023-01-03T03:45:26.332Z,3.07
2023-01-03T03:50:59.421Z,2.13
2023-01-03T03:56:31.195Z,2.83
2023-01-03T04:01:55.946Z,3.70
2023-01-03T04:07:19.150Z,3.33
2023-01-03T04:12:41.429Z,2.93
2023-01-03T04:18:03.948Z,5.13
2023-01-03T04:23:26.124Z,4.50
2023-01-03T04:28:48.567Z,5.00
2023-01-03T04:34:10.855Z,3.90
2023-01-03T04:39:33.056Z,3.00
2023-01-03T04:44:55.254Z,7.63
2023-01-03T04:50:17.771Z,6.10
2023-01-03T04:55:40.581Z,3.10
2023-01-03T05:01:09.061Z,3.23
2023-01-03T05:06:32.264Z,3.93
2023-01-03T05:11:55.151Z,5.37
2023-01-03T05:17:17.410Z,3.67
2023-01-03T05:22:57.677Z,5.40
2023-01-03T05:28:20.390Z,4.87
2023-01-03T05:33:44.944Z,5.53
2023-01-03T05:39:07.128Z,4.17
2023-01-03T05:44:29.449Z,6.00
2023-01-03T05:49:51.626Z,4.37
2023-01-03T05:55:14.069Z,5.00
2023-01-03T06:00:36.429Z,3.23
2023-01-03T06:05:58.635Z,4.43
2023-01-03T06:11:26.423Z,4.00
2023-01-03T06:17:06.781Z,6.37
2023-01-03T06:27:46.091Z,10.97
2023-01-03T06:33:08.417Z,11.70
2023-01-03T06:38:30.616Z,8.55
2023-01-03T06:43:53.240Z,9.03
2023-01-03T06:49:40.630Z,5.58
2023-01-03T06:55:03.507Z,6.73
2023-01-03T07:00:26.806Z,10.40
2023-01-03T07:05:49.080Z,7.10
2023-01-03T07:11:11.487Z,6.13
2023-01-03T07:16:38.141Z,11.60
2023-01-03T07:22:00.328Z,7.10
2023-01-03T07:27:22.533Z,14.37
2023-01-03T07:32:44.951Z,10.80
2023-01-03T07:38:07.285Z,6.55
2023-01-03T07:43:39.791Z,6.97
2023-01-03T07:49:11.180Z,4.70
2023-01-03T07:54:29.690Z,4.40
2023-01-03T07:59:52.194Z,7.47
2023-01-03T08:05:14.650Z,7.78
2023-01-03T08:10:54.826Z,10.73
2023-01-03T08:16:18.633Z,7.87
2023-01-03T08:21:41.353Z,10.73
2023-01-03T08:27:05.416Z,9.67
2023-01-03T08:32:28.340Z,10.67
2023-01-03T08:37:51.175Z,7.40
2023-01-03T08:43:16.127Z,6.77
2023-01-03T08:48:40.355Z,7.08
2023-01-03T08:54:03.231Z,9.85
2023-01-03T08:59:25.735Z,7.07
2023-01-03T09:04:48.015Z,7.73
2023-01-03T09:10:10.369Z,7.55
2023-01-03T09:15:33.193Z,6.07
2023-01-03T09:20:57.276Z,9.83
2023-01-03T09:26:20.088Z,4.37
2023-01-03T09:31:42.528Z,6.43
2023-01-03T09:37:04.841Z,6.33
2023-01-03T09:42:48.616Z,11.15
2023-01-03T09:48:12.812Z,8.08
2023-01-03T09:54:02.616Z,7.80
2023-01-03T09:59:53.435Z,3.90
2023-01-03T10:05:21.667Z,5.73
2023-01-03T10:11:02.428Z,5.83
2023-01-03T10:16:48.608Z,4.17
2023-01-03T10:22:32.763Z,6.80
2023-01-03T10:27:59.647Z,9.60
2023-01-03T10:33:50.550Z,4.33
2023-01-03T10:39:24.003Z,4.43
2023-01-03T10:44:48.200Z,6.30
2023-01-03T10:50:14.665Z,13.80
2023-01-03T10:55:38.179Z,5.37
2023-01-03T11:01:01.202Z,5.35
2023-01-03T11:06:27.981Z,6.27
2023-01-03T11:12:00.714Z,5.75
2023-01-03T11:17:26.618Z,6.17
2023-01-03T11:23:08.078Z,8.58
2023-01-03T11:28:41.107Z,9.93
2023-01-03T11:40:23.893Z,6.50
2023-01-03T11:46:19.580Z,10.77
2023-01-03T11:51:55.466Z,12.07
2023-01-03T11:57:22.538Z,7.30
2023-01-03T12:03:23.186Z,7.10
2023-01-03T12:08:50.840Z,5.90
2023-01-03T12:14:26.991Z,10.40
2023-01-03T12:25:50.540Z,5.13
2023-01-03T12:31:38.012Z,6.23
2023-01-03T12:37:08.982Z,3.77
2023-01-03T12:42:39.309Z,7.58
2023-01-03T12:48:19.051Z,7.42
2023-01-03T12:54:25.667Z,6.73
2023-01-03T13:00:14.484Z,8.20
2023-01-03T13:05:56.093Z,6.30
2023-01-03T13:11:29.068Z,7.33
2023-01-03T13:16:57.861Z,4.53
2023-01-03T13:22:42.955Z,6.03
2023-01-03T13:28:30.786Z,7.70
2023-01-03T13:34:15.460Z,10.98
2023-01-03T13:45:39.850Z,5.63
2023-01-03T13:51:22.792Z,10.80
2023-01-03T13:56:59.124Z,10.50
2023-01-03T14:02:32.529Z,7.40
2023-01-03T14:08:21.867Z,9.15
2023-01-03T14:13:57.094Z,6.40
2023-01-03T14:19:41.301Z,6.35
2023-01-03T14:25:10.782Z,6.62
2023-01-03T14:30:44.362Z,8.17
2023-01-03T14:36:22.706Z,6.97
2023-01-03T14:41:56.163Z,6.85
2023-01-03T14:47:21.589Z,10.77
2023-01-03T14:52:47.624Z,12.43
2023-01-03T14:58:12.568Z,11.87
2023-01-03T15:03:38.385Z,7.62
2023-01-03T15:09:04.889Z,7.70
2023-01-03T15:14:30.715Z,10.15
2023-01-03T15:19:56.438Z,13.62
2023-01-03T15:25:35.164Z,12.27
2023-01-03T15:31:02.025Z,12.58
2023-01-03T15:36:26.538Z,9.28
2023-01-03T15:42:42.985Z,14.45
2023-01-03T15:47:36.948Z,7.67
2023-01-03T15:53:00.052Z,7.70
2023-01-03T15:58:23.005Z,13.08
2023-01-03T16:03:47.482Z,10.13
2023-01-03T16:09:10.285Z,10.28
2023-01-03T16:14:37.497Z,9.13
2023-01-03T16:19:59.950Z,10.83
2023-01-03T16:25:25.999Z,8.38
2023-01-03T16:30:49.082Z,10.80
2023-01-03T16:36:12.649Z,9.63
2023-01-03T16:41:35.055Z,12.60
2023-01-03T16:46:58.106Z,10.63
2023-01-03T16:52:22.734Z,11.23
2023-01-03T16:57:50.201Z,12.03
2023-01-03T17:03:09.107Z,13.43
2023-01-03T17:08:50.121Z,12.77
2023-01-03T17:14:16.389Z,11.67
2023-01-03T17:20:03.273Z,10.93
2023-01-03T17:25:04.985Z,11.33
2023-01-03T17:30:29.830Z,12.18
2023-01-03T17:35:53.351Z,14.45
2023-01-03T17:41:17.487Z,15.57
2023-01-03T17:46:58.962Z,9.50
2023-01-03T17:52:26.161Z,16.17
2023-01-03T17:57:48.807Z,12.83
2023-01-03T18:03:12.273Z,15.72
2023-01-03T18:08:37.569Z,16.17
2023-01-03T18:14:01.458Z,13.90
2023-01-03T18:19:24.184Z,13.10
2023-01-03T18:24:47.867Z,14.10
2023-01-03T18:30:10.523Z,13.15
2023-01-03T18:35:38.060Z,19.00
2023-01-03T18:41:04.805Z,15.55
2023-01-03T18:46:29.468Z,10.18
2023-01-03T18:51:52.519Z,11.28
2023-01-03T18:57:17.102Z,14.35
2023-01-03T19:02:42.067Z,12.03
2023-01-03T19:08:06.892Z,16.32
2023-01-03T19:13:54.684Z,14.43
2023-01-03T19:19:18.398Z,18.73
2023-01-03T19:24:47.042Z,11.25
2023-01-03T19:30:11.393Z,11.43
2023-01-03T19:35:34.645Z,14.83
2023-01-03T19:40:58.360Z,12.10
2023-01-03T19:46:23.131Z,12.45
2023-01-03T19:51:45.664Z,10.20
2023-01-03T19:57:10.698Z,14.23
2023-01-03T20:02:43.362Z,13.93
2023-01-03T20:08:11.763Z,17.17
2023-01-03T20:13:38.122Z,16.10
2023-01-03T20:19:00.455Z,20.03
2023-01-03T20:24:32.831Z,11.83
2023-01-03T20:29:56.124Z,11.88
2023-01-03T20:40:45.121Z,16.77
2023-01-03T20:46:10.230Z,16.77
2023-01-03T20:51:32.636Z,15.53
2023-01-03T20:56:54.996Z,18.50
2023-01-03T21:02:17.936Z,16.60
2023-01-03T21:08:00.935Z,18.67
2023-01-03T21:13:24.045Z,17.07
2023-01-03T21:18:46.302Z,17.10
2023-01-03T21:24:08.598Z,14.25
2023-01-03T21:29:31.343Z,14.77
2023-01-03T21:34:53.784Z,14.83
2023-01-03T21:40:26.060Z,15.30
2023-01-03T21:45:53.693Z,16.12
2023-01-03T21:51:28.638Z,16.50
2023-01-03T21:56:46.415Z,13.77
2023-01-03T22:02:27.119Z,17.17
2023-01-03T22:13:09.775Z,13.45
2023-01-03T22:18:32.128Z,15.03
2023-01-03T22:23:55.212Z,18.95
2023-01-03T22:29:17.535Z,12.50
2023-01-03T22:34:39.792Z,13.43
2023-01-03T22:40:02.562Z,12.28
2023-01-03T22:45:25.735Z,20.50
2023-01-03T22:50:48.775Z,23.50
2023-01-03T22:56:11.855Z,18.90
2023-01-03T23:01:36.003Z,18.40
2023-01-03T23:06:59.611Z,18.85
2023-01-03T23:12:39.577Z,21.12
2023-01-03T23:18:01.812Z,19.30
2023-01-03T23:23:24.618Z,18.65
2023-01-03T23:28:46.928Z,22.42
2023-01-03T23:34:10.192Z,20.15
2023-01-03T23:39:34.364Z,16.80
2023-01-03T23:44:56.654Z,20.00
2023-01-03T23:50:19.014Z,20.48
2023-01-03T23:55:42.503Z,20.48
